createdAt,value
2019-05-16T00:00:21.886Z,43.22
2019-05-16T00:00:58.739Z,43.15
2019-05-16T00:01:35.299Z,43.20
2019-05-16T00:02:11.593Z,43.37
2019-05-16T00:02:48.117Z,43.34
2019-05-16T00:03:23.867Z,43.38
2019-05-16T00:03:59.959Z,43.38
2019-05-16T00:04:37.865Z,43.40
2019-05-16T00:05:14.650Z,43.28
2019-05-16T00:05:54.462Z,43.40
2019-05-16T00:06:29.220Z,43.53
2019-05-16T00:07:05.371Z,43.67
2019-05-16T00:07:42.237Z,43.66
2019-05-16T00:08:18.043Z,43.62
2019-05-16T00:08:54.054Z,43.64
2019-05-16T00:09:30.532Z,43.59
2019-05-16T00:10:08.375Z,43.64
2019-05-16T00:10:44.341Z,43.72
2019-05-16T00:11:20.379Z,43.63
2019-05-16T00:11:58.095Z,43.56
2019-05-16T00:12:33.748Z,43.68
2019-05-16T00:13:10.518Z,43.69
2019-05-16T00:13:48.591Z,43.77
2019-05-16T00:14:23.699Z,43.74
2019-05-16T00:14:59.766Z,43.65
2019-05-16T00:15:37.760Z,43.73
2019-05-16T00:16:13.590Z,43.60
2019-05-16T00:16:50.717Z,43.76
2019-05-16T00:17:28.460Z,43.83
2019-05-16T00:18:03.934Z,43.68
2019-05-16T00:18:40.219Z,43.84
2019-05-16T00:19:18.094Z,43.82
2019-05-16T00:19:54.301Z,43.68
2019-05-16T00:20:30.332Z,43.69
2019-05-16T00:21:08.561Z,43.93
2019-05-16T00:21:43.862Z,43.98
2019-05-16T00:22:19.880Z,43.98
2019-05-16T00:22:55.734Z,43.74
2019-05-16T00:23:32.200Z,43.71
2019-05-16T00:24:08.449Z,43.78
2019-05-16T00:24:44.428Z,43.86
2019-05-16T00:25:20.437Z,43.91
2019-05-16T00:25:58.620Z,43.98
2019-05-16T00:26:35.082Z,44.00
2019-05-16T00:27:10.727Z,44.04
2019-05-16T00:27:47.923Z,44.02
2019-05-16T00:28:24.785Z,43.92
2019-05-16T00:29:00.422Z,44.00
2019-05-16T00:29:38.302Z,44.00
2019-05-16T00:30:14.740Z,44.09
2019-05-16T00:30:50.352Z,44.06
2019-05-16T00:31:28.712Z,44.22
2019-05-16T00:32:04.958Z,44.12
2019-05-16T00:32:40.574Z,44.14
2019-05-16T00:33:18.357Z,44.19
2019-05-16T00:33:54.399Z,44.16
2019-05-16T00:34:30.600Z,43.95
2019-05-16T00:35:09.267Z,44.22
2019-05-16T00:35:45.677Z,44.10
2019-05-16T00:36:21.604Z,44.10
2019-05-16T00:36:58.170Z,44.58
2019-05-16T00:37:34.148Z,44.58
2019-05-16T00:38:09.786Z,44.60
2019-05-16T00:38:45.773Z,44.57
2019-05-16T00:39:21.984Z,44.79
2019-05-16T00:39:58.764Z,44.83
2019-05-16T00:40:35.037Z,44.84
2019-05-16T00:41:10.836Z,44.87
2019-05-16T00:41:47.901Z,44.89
2019-05-16T00:42:24.018Z,44.91
2019-05-16T00:43:00.298Z,44.95
2019-05-16T00:43:37.915Z,44.99
2019-05-16T00:44:13.977Z,45.05
2019-05-16T00:44:50.180Z,45.19
2019-05-16T00:45:25.905Z,45.18
2019-05-16T00:46:02.740Z,45.32
2019-05-16T00:46:38.786Z,45.28
2019-05-16T00:47:14.710Z,45.14
2019-05-16T00:47:50.705Z,45.19
2019-05-16T00:48:28.803Z,45.16
2019-05-16T00:49:04.716Z,45.15
2019-05-16T00:49:40.777Z,45.16
2019-05-16T00:50:18.335Z,45.16
2019-05-16T00:50:54.179Z,45.20
2019-05-16T00:51:31.065Z,45.23
2019-05-16T00:52:07.776Z,45.24
2019-05-16T00:52:43.514Z,45.22
2019-05-16T00:53:19.947Z,45.19
2019-05-16T00:53:56.330Z,45.18
2019-05-16T00:54:33.302Z,45.08
2019-05-16T00:55:09.735Z,45.05
2019-05-16T00:55:47.945Z,44.91
2019-05-16T00:56:23.682Z,44.95
2019-05-16T00:57:01.513Z,45.07
2019-05-16T00:57:38.865Z,45.15
2019-05-16T00:58:15.228Z,45.04
2019-05-16T00:58:51.901Z,44.84
2019-05-16T00:59:28.964Z,44.93
2019-05-16T01:00:05.602Z,45.07
2019-05-16T01:00:49.959Z,45.15
2019-05-16T01:01:28.154Z,45.15
2019-05-16T01:02:03.395Z,45.17
2019-05-16T01:02:40.242Z,45.19
2019-05-16T01:03:16.299Z,45.16
2019-05-16T01:03:52.042Z,45.16
2019-05-16T01:04:28.870Z,45.28
2019-05-16T01:05:05.231Z,45.22
2019-05-16T01:05:40.897Z,45.21
2019-05-16T01:06:22.492Z,44.99
2019-05-16T01:06:54.928Z,44.96
2019-05-16T01:07:30.645Z,45.10
2019-05-16T01:08:07.844Z,45.09
2019-05-16T01:08:43.867Z,45.28
2019-05-16T01:09:19.956Z,45.34
2019-05-16T01:09:58.165Z,45.41
2019-05-16T01:10:33.659Z,45.63
2019-05-16T01:11:09.315Z,45.81
2019-05-16T01:11:48.508Z,45.83
2019-05-16T01:12:24.226Z,45.84
2019-05-16T01:12:59.908Z,45.71
2019-05-16T01:13:38.052Z,45.75
2019-05-16T01:14:14.459Z,45.92
2019-05-16T01:14:50.580Z,45.57
2019-05-16T01:15:28.731Z,45.88
2019-05-16T01:16:04.208Z,45.98
2019-05-16T01:16:39.862Z,45.92
2019-05-16T01:17:18.207Z,45.98
2019-05-16T01:17:54.173Z,45.92
2019-05-16T01:18:29.845Z,45.82
2019-05-16T01:19:08.286Z,45.72
2019-05-16T01:19:43.519Z,45.79
2019-05-16T01:20:19.485Z,45.77
2019-05-16T01:20:58.401Z,45.86
2019-05-16T01:21:34.245Z,45.85
2019-05-16T01:22:09.895Z,45.88
2019-05-16T01:22:45.923Z,45.97
2019-05-16T01:23:22.097Z,46.01
2019-05-16T01:23:58.662Z,45.86
2019-05-16T01:24:34.691Z,45.70
2019-05-16T01:25:10.926Z,45.60
2019-05-16T01:25:48.439Z,45.58
2019-05-16T01:26:24.417Z,45.63
2019-05-16T01:27:00.268Z,45.57
2019-05-16T01:27:38.364Z,45.56
2019-05-16T01:28:13.921Z,45.58
2019-05-16T01:28:49.772Z,45.58
2019-05-16T01:29:28.070Z,45.59
2019-05-16T01:30:03.762Z,45.68
2019-05-16T01:30:40.014Z,45.63
2019-05-16T01:31:15.665Z,45.62
2019-05-16T01:31:51.731Z,45.55
2019-05-16T01:32:29.126Z,45.54
2019-05-16T01:33:05.567Z,45.55
2019-05-16T01:33:42.060Z,45.69
2019-05-16T01:34:18.203Z,45.65
2019-05-16T01:34:54.131Z,45.71
2019-05-16T01:35:30.320Z,45.69
2019-05-16T01:36:08.800Z,45.82
2019-05-16T01:36:44.027Z,45.76
2019-05-16T01:37:20.069Z,45.68
2019-05-16T01:37:58.095Z,45.67
2019-05-16T01:38:33.799Z,45.57
2019-05-16T01:39:09.889Z,45.65
2019-05-16T01:39:48.275Z,45.59
2019-05-16T01:40:23.447Z,45.71
2019-05-16T01:40:59.520Z,45.62
2019-05-16T01:41:38.049Z,45.65
2019-05-16T01:42:13.412Z,45.78
2019-05-16T01:42:49.414Z,45.83
2019-05-16T01:43:25.547Z,45.87
2019-05-16T01:44:01.230Z,45.64
2019-05-16T01:44:38.229Z,45.63
2019-05-16T01:45:14.330Z,45.76
2019-05-16T01:45:50.046Z,45.83
2019-05-16T01:46:28.396Z,45.63
2019-05-16T01:47:04.055Z,45.73
2019-05-16T01:47:39.678Z,46.05
2019-05-16T01:48:18.760Z,46.14
2019-05-16T01:48:53.562Z,46.03
2019-05-16T01:49:29.221Z,46.17
2019-05-16T01:50:05.527Z,46.10
2019-05-16T01:50:41.321Z,46.08
2019-05-16T01:51:18.474Z,46.21
2019-05-16T01:51:54.839Z,46.25
2019-05-16T01:52:30.841Z,46.24
2019-05-16T01:53:08.682Z,46.29
2019-05-16T01:53:44.760Z,46.17
2019-05-16T01:54:21.427Z,46.13
2019-05-16T01:54:58.705Z,46.20
2019-05-16T01:55:34.944Z,46.20
2019-05-16T01:56:11.086Z,46.17
2019-05-16T01:56:48.122Z,46.28
2019-05-16T01:57:24.292Z,46.52
2019-05-16T01:58:00.585Z,46.45
2019-05-16T01:58:38.271Z,46.46
2019-05-16T01:59:14.245Z,46.48
2019-05-16T01:59:50.078Z,46.53
2019-05-16T02:00:35.929Z,46.57
2019-05-16T02:01:12.258Z,46.59
2019-05-16T02:01:42.269Z,46.46
2019-05-16T02:02:18.534Z,46.56
2019-05-16T02:02:55.020Z,46.63
2019-05-16T02:03:30.859Z,46.83
2019-05-16T02:04:11.788Z,46.71
2019-05-16T02:04:44.276Z,46.81
2019-05-16T02:05:20.499Z,46.66
2019-05-16T02:05:58.527Z,46.76
2019-05-16T02:06:50.078Z,46.87
2019-05-16T02:07:12.751Z,46.87
2019-05-16T02:07:48.701Z,46.99
2019-05-16T02:08:25.056Z,46.99
2019-05-16T02:09:01.025Z,47.00
2019-05-16T02:09:38.423Z,46.87
2019-05-16T02:10:14.943Z,46.91
2019-05-16T02:10:51.609Z,46.91
2019-05-16T02:11:28.532Z,47.17
2019-05-16T02:12:05.080Z,46.80
2019-05-16T02:12:41.482Z,46.94
2019-05-16T02:13:17.999Z,46.99
2019-05-16T02:13:54.260Z,47.17
2019-05-16T02:14:30.084Z,47.07
2019-05-16T02:15:07.860Z,47.02
2019-05-16T02:15:44.391Z,47.03
2019-05-16T02:16:20.237Z,47.27
2019-05-16T02:16:58.053Z,47.32
2019-05-16T02:17:34.583Z,47.30
2019-05-16T02:18:10.376Z,47.26
2019-05-16T02:18:46.122Z,47.27
2019-05-16T02:19:22.144Z,47.45
2019-05-16T02:19:58.520Z,47.54
2019-05-16T02:20:34.150Z,47.73
2019-05-16T02:21:10.703Z,47.74
2019-05-16T02:21:47.595Z,47.70
2019-05-16T02:22:24.729Z,47.66
2019-05-16T02:23:00.785Z,47.78
2019-05-16T02:23:38.258Z,47.82
2019-05-16T02:24:13.915Z,47.88
2019-05-16T02:24:49.929Z,47.89
2019-05-16T02:25:27.706Z,47.98
2019-05-16T02:26:03.882Z,47.98
2019-05-16T02:26:40.044Z,48.04
2019-05-16T02:27:18.240Z,48.10
2019-05-16T02:27:53.659Z,48.07
2019-05-16T02:28:39.129Z,47.99
2019-05-16T02:29:13.304Z,48.13
2019-05-16T02:29:45.181Z,48.13
2019-05-16T02:30:22.509Z,48.30
2019-05-16T02:31:01.283Z,48.34
2019-05-16T02:31:36.370Z,48.38
2019-05-16T02:32:12.809Z,48.41
2019-05-16T02:32:52.370Z,48.32
2019-05-16T02:33:26.857Z,48.42
2019-05-16T02:34:04.794Z,48.45
2019-05-16T02:34:41.638Z,48.51
2019-05-16T02:35:21.021Z,48.62
2019-05-16T02:35:56.429Z,48.54
2019-05-16T02:36:32.350Z,48.40
2019-05-16T02:37:20.155Z,48.17
2019-05-16T02:37:45.734Z,48.33
2019-05-16T02:38:21.893Z,48.52
2019-05-16T02:39:01.096Z,48.46
2019-05-16T02:39:35.741Z,48.52
2019-05-16T02:40:12.579Z,48.48
2019-05-16T02:40:51.203Z,48.50
2019-05-16T02:41:26.401Z,48.49
2019-05-16T02:42:02.638Z,48.67
2019-05-16T02:42:41.914Z,48.60
2019-05-16T02:43:16.253Z,48.60
2019-05-16T02:43:52.136Z,48.55
2019-05-16T02:44:31.471Z,48.49
2019-05-16T02:45:10.669Z,48.54
2019-05-16T02:45:45.571Z,48.60
2019-05-16T02:46:21.982Z,48.86
2019-05-16T02:47:01.631Z,48.83
2019-05-16T02:47:36.575Z,48.93
2019-05-16T02:48:12.603Z,48.69
2019-05-16T02:48:51.590Z,48.72
2019-05-16T02:49:26.248Z,48.77
2019-05-16T02:50:02.263Z,48.70
2019-05-16T02:50:41.417Z,48.85
2019-05-16T02:51:17.152Z,48.86
2019-05-16T02:51:53.909Z,48.86
2019-05-16T02:52:31.707Z,48.79
2019-05-16T02:53:07.979Z,48.84
2019-05-16T02:53:43.607Z,48.86
2019-05-16T02:54:21.872Z,48.77
2019-05-16T02:55:00.759Z,48.67
2019-05-16T02:55:35.706Z,48.74
2019-05-16T02:56:12.366Z,48.76
2019-05-16T02:56:50.677Z,48.81
2019-05-16T02:57:26.631Z,48.84
2019-05-16T02:58:02.717Z,48.84
2019-05-16T02:58:44.271Z,48.99
2019-05-16T02:59:16.858Z,49.04
2019-05-16T02:59:52.931Z,49.07
2019-05-16T03:00:42.584Z,49.21
2019-05-16T03:01:16.111Z,49.23
2019-05-16T03:01:52.448Z,49.33
2019-05-16T03:02:31.209Z,49.41
2019-05-16T03:03:07.462Z,49.50
2019-05-16T03:03:44.180Z,49.65
2019-05-16T03:04:21.327Z,49.48
2019-05-16T03:05:00.644Z,49.51
2019-05-16T03:05:36.235Z,49.55
2019-05-16T03:06:13.447Z,49.78
2019-05-16T03:06:51.292Z,49.68
2019-05-16T03:07:37.678Z,49.56
2019-05-16T03:08:05.646Z,49.39
2019-05-16T03:08:42.215Z,49.50
2019-05-16T03:09:20.882Z,49.60
2019-05-16T03:10:01.090Z,49.67
2019-05-16T03:10:35.726Z,49.75
2019-05-16T03:11:12.184Z,49.81
2019-05-16T03:11:50.992Z,49.85
2019-05-16T03:12:30.898Z,50.02
2019-05-16T03:13:06.527Z,50.06
2019-05-16T03:13:43.433Z,50.04
2019-05-16T03:14:21.475Z,50.02
2019-05-16T03:15:02.440Z,50.14
2019-05-16T03:15:37.061Z,49.86
2019-05-16T03:16:12.910Z,49.86
2019-05-16T03:16:50.730Z,50.03
2019-05-16T03:17:31.621Z,50.02
2019-05-16T03:18:05.891Z,50.00
2019-05-16T03:18:42.334Z,49.94
2019-05-16T03:19:21.671Z,49.96
2019-05-16T03:20:01.436Z,49.97
2019-05-16T03:20:40.861Z,50.05
2019-05-16T03:21:16.735Z,50.10
2019-05-16T03:21:54.659Z,50.11
2019-05-16T03:22:31.691Z,50.13
2019-05-16T03:23:11.012Z,50.15
2019-05-16T03:23:45.019Z,50.20
2019-05-16T03:24:21.036Z,50.24
2019-05-16T03:24:56.880Z,50.28
2019-05-16T03:25:33.321Z,50.23
2019-05-16T03:26:11.810Z,50.25
2019-05-16T03:26:47.597Z,50.23
2019-05-16T03:27:23.785Z,50.27
2019-05-16T03:28:01.890Z,50.17
2019-05-16T03:28:37.782Z,50.24
2019-05-16T03:29:13.499Z,50.31
2019-05-16T03:29:50.658Z,50.27
2019-05-16T03:30:26.862Z,50.36
2019-05-16T03:31:05.019Z,50.46
2019-05-16T03:31:44.343Z,50.54
2019-05-16T03:32:23.590Z,50.55
2019-05-16T03:32:55.918Z,50.43
2019-05-16T03:33:40.472Z,50.56
2019-05-16T03:34:14.872Z,50.58
2019-05-16T03:34:47.255Z,50.60
2019-05-16T03:35:25.057Z,50.89
2019-05-16T03:36:04.544Z,50.67
2019-05-16T03:36:44.080Z,50.68
2019-05-16T03:37:16.657Z,50.88
2019-05-16T03:37:59.672Z,50.85
2019-05-16T03:38:30.748Z,50.91
2019-05-16T03:39:10.510Z,50.97
2019-05-16T03:39:45.206Z,50.86
2019-05-16T03:40:31.053Z,50.94
2019-05-16T03:41:05.843Z,50.86
2019-05-16T03:41:41.678Z,50.92
2019-05-16T03:42:20.268Z,50.99
2019-05-16T03:42:55.599Z,50.90
2019-05-16T03:43:31.527Z,50.87
2019-05-16T03:44:07.182Z,50.94
2019-05-16T03:44:43.336Z,51.04
2019-05-16T03:45:21.198Z,51.01
2019-05-16T03:45:57.243Z,50.91
2019-05-16T03:46:33.548Z,51.05
2019-05-16T03:47:11.296Z,51.04
2019-05-16T03:47:46.728Z,51.11
2019-05-16T03:48:23.209Z,51.17
2019-05-16T03:49:02.503Z,51.07
2019-05-16T03:49:36.903Z,51.13
2019-05-16T03:50:13.094Z,51.28
2019-05-16T03:50:50.799Z,51.50
2019-05-16T03:51:26.581Z,51.63
2019-05-16T03:52:02.959Z,51.43
2019-05-16T03:52:42.915Z,51.48
2019-05-16T03:53:16.692Z,51.52
2019-05-16T03:53:52.724Z,51.63
2019-05-16T03:54:31.426Z,51.71
2019-05-16T03:55:06.822Z,51.56
2019-05-16T03:55:42.843Z,51.69
2019-05-16T03:56:21.692Z,51.54
2019-05-16T03:56:56.644Z,51.49
2019-05-16T03:57:33.125Z,51.42
2019-05-16T03:58:11.689Z,51.62
2019-05-16T03:58:46.617Z,51.32
2019-05-16T03:59:23.037Z,51.33
2019-05-16T04:00:00.564Z,51.38
2019-05-16T04:01:02.528Z,51.40
2019-05-16T04:01:41.070Z,51.43
2019-05-16T04:02:17.005Z,51.38
2019-05-16T04:02:53.193Z,51.36
2019-05-16T04:03:33.000Z,51.25
2019-05-16T04:04:07.104Z,51.31
2019-05-16T04:04:42.735Z,51.41
2019-05-16T04:05:21.137Z,51.26
2019-05-16T04:05:56.790Z,51.37
2019-05-16T04:06:32.800Z,51.43
2019-05-16T04:07:10.961Z,51.49
2019-05-16T04:07:46.371Z,51.37
2019-05-16T04:08:24.774Z,50.97
2019-05-16T04:09:01.593Z,50.79
2019-05-16T04:09:40.907Z,50.85
2019-05-16T04:10:15.479Z,50.89
2019-05-16T04:10:52.396Z,51.26
2019-05-16T04:11:32.146Z,51.17
2019-05-16T04:12:06.324Z,51.24
2019-05-16T04:12:42.445Z,51.35
2019-05-16T04:13:21.267Z,51.32
2019-05-16T04:13:56.566Z,51.37
2019-05-16T04:14:32.976Z,51.17
2019-05-16T04:15:11.385Z,51.10
2019-05-16T04:15:47.522Z,51.08
2019-05-16T04:16:23.955Z,51.14
2019-05-16T04:17:01.746Z,51.21
2019-05-16T04:17:40.847Z,51.08
2019-05-16T04:18:15.595Z,51.08
2019-05-16T04:18:51.739Z,50.86
2019-05-16T04:19:27.424Z,50.97
2019-05-16T04:20:03.839Z,51.01
2019-05-16T04:20:40.636Z,51.09
2019-05-16T04:21:17.730Z,51.37
2019-05-16T04:21:54.853Z,51.23
2019-05-16T04:22:31.814Z,51.09
2019-05-16T04:23:11.016Z,50.86
2019-05-16T04:23:45.742Z,50.96
2019-05-16T04:24:21.937Z,51.04
2019-05-16T04:24:57.634Z,51.34
2019-05-16T04:25:33.717Z,51.35
2019-05-16T04:26:11.354Z,51.20
2019-05-16T04:26:47.198Z,51.33
2019-05-16T04:27:23.561Z,51.30
2019-05-16T04:28:01.013Z,51.17
2019-05-16T04:28:40.965Z,51.04
2019-05-16T04:29:15.718Z,51.02
2019-05-16T04:29:52.162Z,51.07
2019-05-16T04:30:31.040Z,50.79
2019-05-16T04:31:05.553Z,50.64
2019-05-16T04:31:41.738Z,50.61
2019-05-16T04:32:20.571Z,50.65
2019-05-16T04:32:55.647Z,50.64
2019-05-16T04:33:31.852Z,50.76
2019-05-16T04:34:07.536Z,50.79
2019-05-16T04:34:43.539Z,50.81
2019-05-16T04:35:21.515Z,50.56
2019-05-16T04:35:57.456Z,50.72
2019-05-16T04:36:33.515Z,50.86
2019-05-16T04:37:11.445Z,50.77
2019-05-16T04:37:46.689Z,50.61
2019-05-16T04:38:35.063Z,50.57
2019-05-16T04:39:01.811Z,50.54
2019-05-16T04:39:41.243Z,50.48
2019-05-16T04:40:15.907Z,50.51
2019-05-16T04:40:52.232Z,50.64
2019-05-16T04:41:31.126Z,50.31
2019-05-16T04:42:05.616Z,50.34
2019-05-16T04:42:42.025Z,50.52
2019-05-16T04:43:17.721Z,50.51
2019-05-16T04:43:54.392Z,50.39
2019-05-16T04:44:31.168Z,50.43
2019-05-16T04:45:07.077Z,50.18
2019-05-16T04:45:43.579Z,50.04
2019-05-16T04:46:21.392Z,50.12
2019-05-16T04:46:57.169Z,50.01
2019-05-16T04:47:33.223Z,50.01
2019-05-16T04:48:11.265Z,50.11
2019-05-16T04:48:46.900Z,50.10
2019-05-16T04:49:22.930Z,50.16
2019-05-16T04:50:01.593Z,50.16
2019-05-16T04:50:36.604Z,50.10
2019-05-16T04:51:12.969Z,49.88
2019-05-16T04:51:51.494Z,50.00
2019-05-16T04:52:26.587Z,50.15
2019-05-16T04:53:02.648Z,49.85
2019-05-16T04:53:42.116Z,49.84
2019-05-16T04:54:16.071Z,49.85
2019-05-16T04:54:52.192Z,49.88
2019-05-16T04:55:31.374Z,49.92
2019-05-16T04:56:05.545Z,49.94
2019-05-16T04:56:41.875Z,49.69
2019-05-16T04:57:20.912Z,49.81
2019-05-16T04:57:55.440Z,49.91
2019-05-16T04:58:31.932Z,50.02
2019-05-16T04:59:12.987Z,49.90
2019-05-16T04:59:45.434Z,49.94
2019-05-16T05:00:21.892Z,49.95
2019-05-16T05:00:57.784Z,49.77
2019-05-16T05:01:34.499Z,49.52
2019-05-16T05:02:12.215Z,49.58
2019-05-16T05:02:48.075Z,49.52
2019-05-16T05:03:24.525Z,49.66
2019-05-16T05:04:10.281Z,49.82
2019-05-16T05:04:41.127Z,49.74
2019-05-16T05:05:16.434Z,49.61
2019-05-16T05:05:52.442Z,49.74
2019-05-16T05:06:31.339Z,49.92
2019-05-16T05:07:06.079Z,49.92
2019-05-16T05:07:42.065Z,50.05
2019-05-16T05:08:22.086Z,50.03
2019-05-16T05:08:58.929Z,49.79
2019-05-16T05:09:34.043Z,49.64
2019-05-16T05:10:11.223Z,49.76
2019-05-16T05:10:47.632Z,49.86
2019-05-16T05:11:23.667Z,49.90
2019-05-16T05:12:04.139Z,49.83
2019-05-16T05:12:37.351Z,49.96
2019-05-16T05:13:13.643Z,49.88
2019-05-16T05:13:50.628Z,49.74
2019-05-16T05:14:26.674Z,49.80
2019-05-16T05:15:02.819Z,49.79
2019-05-16T05:15:40.121Z,49.83
2019-05-16T05:16:15.856Z,49.76
2019-05-16T05:16:52.234Z,49.74
2019-05-16T05:17:30.542Z,49.65
2019-05-16T05:18:05.531Z,49.96
2019-05-16T05:18:41.856Z,49.84
2019-05-16T05:19:20.172Z,49.52
2019-05-16T05:19:55.189Z,49.77
2019-05-16T05:20:31.709Z,49.04
2019-05-16T05:21:07.970Z,49.04
2019-05-16T05:21:43.531Z,49.16
2019-05-16T05:22:20.301Z,48.92
2019-05-16T05:22:56.206Z,49.15
2019-05-16T05:23:31.859Z,49.17
2019-05-16T05:24:10.655Z,49.34
2019-05-16T05:24:46.462Z,49.12
2019-05-16T05:25:22.428Z,49.06
2019-05-16T05:26:00.268Z,49.07
2019-05-16T05:26:36.760Z,49.08
2019-05-16T05:27:12.394Z,49.10
2019-05-16T05:27:50.107Z,48.64
2019-05-16T05:28:26.148Z,48.64
2019-05-16T05:29:01.810Z,48.98
2019-05-16T05:29:39.838Z,48.86
2019-05-16T05:30:16.410Z,48.99
2019-05-16T05:30:52.076Z,48.91
2019-05-16T05:31:34.384Z,49.12
2019-05-16T05:32:06.137Z,48.95
2019-05-16T05:32:41.757Z,48.63
2019-05-16T05:33:17.791Z,48.72
2019-05-16T05:33:53.709Z,48.85
2019-05-16T05:34:30.512Z,48.79
2019-05-16T05:35:07.117Z,48.51
2019-05-16T05:35:42.977Z,48.52
2019-05-16T05:36:20.989Z,48.43
2019-05-16T05:36:56.450Z,48.54
2019-05-16T05:37:32.745Z,48.54
2019-05-16T05:38:10.365Z,48.34
2019-05-16T05:38:48.459Z,47.84
2019-05-16T05:39:24.516Z,47.84
2019-05-16T05:40:00.346Z,48.35
2019-05-16T05:40:37.105Z,48.35
2019-05-16T05:41:12.959Z,47.90
2019-05-16T05:41:50.462Z,47.78
2019-05-16T05:42:27.492Z,47.07
2019-05-16T05:43:03.352Z,47.07
2019-05-16T05:43:39.756Z,47.04
2019-05-16T05:44:16.368Z,47.06
2019-05-16T05:44:52.950Z,47.06
2019-05-16T05:45:30.601Z,46.39
2019-05-16T05:46:06.715Z,46.39
2019-05-16T05:46:42.919Z,46.08
2019-05-16T05:47:20.036Z,46.07
2019-05-16T05:47:56.473Z,45.98
2019-05-16T05:48:32.333Z,45.94
2019-05-16T05:49:10.388Z,45.88
2019-05-16T05:49:46.042Z,45.77
2019-05-16T05:50:22.536Z,45.31
2019-05-16T05:51:00.213Z,45.31
2019-05-16T05:51:36.025Z,45.47
2019-05-16T05:52:12.774Z,45.13
2019-05-16T05:52:50.533Z,45.12
2019-05-16T05:53:26.685Z,45.12
2019-05-16T05:54:02.518Z,45.05
2019-05-16T05:54:40.583Z,45.05
2019-05-16T05:55:16.168Z,45.18
2019-05-16T05:55:52.027Z,45.18
2019-05-16T05:56:30.313Z,43.87
2019-05-16T05:57:05.432Z,43.87
2019-05-16T05:57:41.413Z,44.17
2019-05-16T05:58:17.086Z,44.01
2019-05-16T05:58:53.767Z,44.01
2019-05-16T05:59:30.731Z,43.88
2019-05-16T06:00:07.039Z,43.83
2019-05-16T06:00:43.328Z,43.83
2019-05-16T06:01:20.517Z,43.41
2019-05-16T06:01:57.188Z,43.27
2019-05-16T06:02:33.318Z,43.27
2019-05-16T06:03:10.709Z,43.33
2019-05-16T06:03:46.615Z,43.45
2019-05-16T06:04:22.649Z,43.45
2019-05-16T06:04:59.751Z,42.67
2019-05-16T06:05:35.814Z,42.58
2019-05-16T06:06:12.622Z,42.65
2019-05-16T06:06:50.403Z,42.28
2019-05-16T06:07:26.168Z,42.39
2019-05-16T06:08:03.046Z,41.92
2019-05-16T06:08:40.886Z,42.14
2019-05-16T06:09:26.306Z,41.58
2019-05-16T06:09:56.541Z,41.58
2019-05-16T06:10:32.386Z,41.71
2019-05-16T06:11:09.964Z,41.40
2019-05-16T06:11:46.136Z,41.38
2019-05-16T06:12:21.980Z,41.54
2019-05-16T06:12:57.735Z,41.24
2019-05-16T06:13:33.768Z,41.54
2019-05-16T06:14:09.864Z,41.21
2019-05-16T06:14:45.664Z,41.23
2019-05-16T06:15:22.187Z,41.17
2019-05-16T06:16:00.035Z,41.08
2019-05-16T06:16:36.241Z,41.38
2019-05-16T06:17:13.007Z,41.12
2019-05-16T06:17:50.916Z,41.10
2019-05-16T06:18:27.177Z,41.05
2019-05-16T06:19:03.325Z,41.29
2019-05-16T06:19:40.201Z,40.83
2019-05-16T06:20:16.025Z,40.76
2019-05-16T06:20:52.536Z,40.68
2019-05-16T06:21:33.039Z,40.61
2019-05-16T06:22:06.188Z,40.27
2019-05-16T06:22:42.200Z,40.12
2019-05-16T06:23:20.733Z,40.12
2019-05-16T06:23:55.933Z,39.95
2019-05-16T06:24:32.166Z,40.02
2019-05-16T06:25:12.939Z,40.16
2019-05-16T06:25:45.901Z,40.01
2019-05-16T06:26:21.975Z,40.05
2019-05-16T06:27:00.784Z,40.25
2019-05-16T06:27:35.949Z,40.48
2019-05-16T06:28:11.985Z,40.43
2019-05-16T06:28:50.223Z,40.60
2019-05-16T06:29:25.271Z,40.72
2019-05-16T06:30:01.704Z,40.85
2019-05-16T06:30:37.564Z,40.85
2019-05-16T06:31:14.437Z,40.72
2019-05-16T06:31:50.629Z,40.35
2019-05-16T06:32:26.486Z,40.13
2019-05-16T06:33:02.329Z,39.94
2019-05-16T06:33:40.968Z,40.24
2019-05-16T06:34:15.974Z,40.39
2019-05-16T06:34:52.057Z,40.49
2019-05-16T06:35:29.885Z,40.26
2019-05-16T06:36:06.032Z,40.14
2019-05-16T06:36:42.167Z,40.06
2019-05-16T06:37:20.479Z,40.53
2019-05-16T06:37:56.560Z,40.08
2019-05-16T06:38:32.347Z,40.33
2019-05-16T06:39:11.380Z,40.33
2019-05-16T06:39:47.145Z,40.23
2019-05-16T06:40:23.216Z,40.14
2019-05-16T06:41:00.674Z,40.17
2019-05-16T06:41:36.642Z,40.23
2019-05-16T06:42:12.268Z,40.33
2019-05-16T06:42:50.878Z,40.08
2019-05-16T06:43:26.866Z,40.13
2019-05-16T06:44:02.858Z,40.22
2019-05-16T06:44:40.145Z,40.58
2019-05-16T06:45:16.434Z,40.56
2019-05-16T06:45:52.071Z,40.70
2019-05-16T06:46:30.512Z,40.84
2019-05-16T06:47:16.861Z,40.89
2019-05-16T06:47:43.216Z,40.92
2019-05-16T06:48:21.084Z,41.16
2019-05-16T06:48:57.061Z,40.83
2019-05-16T06:49:32.835Z,40.83
2019-05-16T06:50:11.430Z,41.19
2019-05-16T06:50:47.441Z,41.24
2019-05-16T06:51:23.381Z,41.02
2019-05-16T06:51:59.858Z,41.14
2019-05-16T06:52:35.818Z,41.46
2019-05-16T06:53:11.783Z,41.54
2019-05-16T06:53:50.027Z,42.00
2019-05-16T06:54:29.805Z,42.76
2019-05-16T06:55:06.205Z,43.40
2019-05-16T06:55:42.801Z,42.79
2019-05-16T06:56:20.005Z,43.20
2019-05-16T06:56:56.399Z,43.41
2019-05-16T06:57:33.037Z,43.89
2019-05-16T06:58:10.589Z,43.65
2019-05-16T06:58:50.956Z,44.91
2019-05-16T06:59:25.370Z,44.87
2019-05-16T07:00:01.938Z,44.09
2019-05-16T07:00:40.475Z,45.27
2019-05-16T07:01:16.088Z,45.71
2019-05-16T07:01:51.982Z,45.71
2019-05-16T07:02:33.658Z,47.27
2019-05-16T07:03:09.410Z,46.92
2019-05-16T07:03:44.424Z,46.05
2019-05-16T07:04:20.440Z,48.33
2019-05-16T07:04:56.703Z,48.05
2019-05-16T07:05:32.560Z,48.09
2019-05-16T07:06:11.130Z,48.09
2019-05-16T07:06:57.932Z,49.36
2019-05-16T07:07:23.941Z,47.26
2019-05-16T07:07:59.865Z,48.21
2019-05-16T07:08:35.921Z,46.95
2019-05-16T07:09:11.740Z,45.85
2019-05-16T07:09:58.112Z,46.09
2019-05-16T07:10:25.149Z,49.10
2019-05-16T07:11:01.061Z,48.47
2019-05-16T07:11:37.100Z,46.14
2019-05-16T07:12:14.388Z,46.91
2019-05-16T07:12:50.629Z,49.15
2019-05-16T07:13:26.349Z,47.78
2019-05-16T07:14:03.128Z,48.75
2019-05-16T07:14:40.594Z,47.59
2019-05-16T07:15:20.457Z,48.74
2019-05-16T07:15:57.439Z,46.02
2019-05-16T07:16:34.104Z,45.43
2019-05-16T07:17:10.331Z,50.17
2019-05-16T07:17:46.678Z,48.81
2019-05-16T07:18:23.459Z,48.51
2019-05-16T07:19:00.855Z,48.25
2019-05-16T07:19:37.902Z,48.42
2019-05-16T07:20:15.740Z,46.76
2019-05-16T07:20:51.586Z,48.72
2019-05-16T07:21:27.886Z,49.15
2019-05-16T07:22:04.656Z,49.77
2019-05-16T07:22:40.908Z,48.37
2019-05-16T07:23:17.877Z,46.88
2019-05-16T07:23:53.764Z,48.19
2019-05-16T07:24:30.520Z,46.04
2019-05-16T07:25:07.605Z,45.12
2019-05-16T07:25:44.037Z,45.38
2019-05-16T07:26:20.641Z,45.88
2019-05-16T07:26:56.853Z,48.64
2019-05-16T07:27:33.783Z,47.55
2019-05-16T07:28:10.212Z,48.00
2019-05-16T07:28:46.443Z,47.41
2019-05-16T07:29:22.902Z,48.31
2019-05-16T07:30:01.212Z,47.42
2019-05-16T07:30:36.564Z,46.84
2019-05-16T07:31:18.446Z,46.83
2019-05-16T07:31:52.266Z,47.29
2019-05-16T07:32:30.228Z,46.29
2019-05-16T07:33:06.877Z,45.51
2019-05-16T07:33:42.561Z,43.85
2019-05-16T07:34:20.604Z,46.10
2019-05-16T07:34:57.275Z,45.99
2019-05-16T07:35:33.894Z,44.19
2019-05-16T07:36:10.463Z,46.82
2019-05-16T07:36:46.958Z,46.82
2019-05-16T07:37:23.238Z,46.13
2019-05-16T07:38:00.566Z,44.93
2019-05-16T07:38:37.041Z,45.68
2019-05-16T07:39:13.688Z,46.32
2019-05-16T07:39:51.149Z,46.83
2019-05-16T07:40:27.361Z,46.19
2019-05-16T07:41:03.558Z,44.22
2019-05-16T07:41:40.170Z,42.21
2019-05-16T07:42:16.740Z,42.82
2019-05-16T07:42:52.582Z,43.56
2019-05-16T07:43:30.804Z,44.82
2019-05-16T07:44:10.577Z,43.54
2019-05-16T07:44:45.634Z,40.46
2019-05-16T07:45:21.715Z,43.00
2019-05-16T07:46:00.218Z,40.86
2019-05-16T07:46:35.174Z,40.36
2019-05-16T07:47:11.779Z,41.19
2019-05-16T07:47:47.883Z,41.63
2019-05-16T07:48:24.522Z,39.45
2019-05-16T07:49:01.353Z,40.39
2019-05-16T07:49:37.445Z,40.44
2019-05-16T07:50:13.853Z,40.03
2019-05-16T07:50:50.176Z,38.62
2019-05-16T07:51:27.591Z,37.42
2019-05-16T07:52:03.276Z,38.30
2019-05-16T07:52:40.421Z,37.50
2019-05-16T07:53:16.488Z,37.92